Crossroads, New Mexico
Current Conditions -  °F | °C
As of 5:50 AM on Friday 24 Oct 2014 (Local Time) from KHOB Reporting Station
Haze Haze  
Wind Chill: 52°   Ceiling: Unl
Heat Index: 52°   Visibility: 3mi
Dew Point: 52°   Wind: 5mph
Humidity: 100%   Direction: 230°SW
Pressure: 30.18"   Gusts: NA
Location:  33.51°N, 103.34°W
Report Text: KHOB 241150Z 23004KT 3SM BR SKC 11/11 A3018
Loading
Personal Weather Stations






























Interactive Weather Map
Tropical Storm Tracking
New forecast layout! Learn more

10-Day Weather Forecast

Advertisements
Track Severe Weather on mobile